QFA500 YSSY-YBBN
Flight info
| Callsign | QFA500 |
|---|---|
| Flight time | 1h 9m |
| Altitude | 35000 |
| Route | OLSEM Y193 BANDA H252 GOMOL |
| Aircraft | B738/M-SDE1E2E3FGHIJ2J3J4J5M1RWXYZ/LB1D1 |
Departure
| Time | 2026-04-24 15:17 |
|---|---|
| Airport | Sydney Kingsford Smith International Airport (YSSY) |
Arrival
| Time | 2026-04-24 16:27 |
|---|---|
| Airport | Brisbane International Airport (YBBN) |
| Time | Latitude | Longitude | Altitude | Speed | Heading |
|---|---|---|---|---|---|
| 2026-04-24 15:02 | -33.93112 | 151.17714 | 22 ft | 0 kts | 189° |
| 2026-04-24 15:05 | -33.93098 | 151.17715 | 22 ft | 2 kts | 189° |
| 2026-04-24 15:05 | -33.93083 | 151.17719 | 22 ft | 2 kts | 189° |
| 2026-04-24 15:05 | -33.93068 | 151.17722 | 22 ft | 2 kts | 189° |
| 2026-04-24 15:05 | -33.93054 | 151.17726 | 22 ft | 1 kts | 222° |
| 2026-04-24 15:06 | -33.93049 | 151.17740 | 22 ft | 2 kts | 279° |
| 2026-04-24 15:06 | -33.93055 | 151.17755 | 22 ft | 1 kts | 307° |
| 2026-04-24 15:06 | -33.93057 | 151.17758 | 22 ft | 0 kts | 304° |
| 2026-04-24 15:08 | -33.93056 | 151.17757 | 22 ft | 2 kts | 304° |
| 2026-04-24 15:08 | -33.93045 | 151.17735 | 22 ft | 10 kts | 298° |
| 2026-04-24 15:09 | -33.93015 | 151.17635 | 22 ft | 12 kts | 284° |
| 2026-04-24 15:09 | -33.93027 | 151.17554 | 22 ft | 10 kts | 217° |
| 2026-04-24 15:09 | -33.93113 | 151.17523 | 20 ft | 18 kts | 168° |
| 2026-04-24 15:09 | -33.93245 | 151.17557 | 17 ft | 19 kts | 168° |
| 2026-04-24 15:10 | -33.93380 | 151.17590 | 14 ft | 20 kts | 169° |
| 2026-04-24 15:10 | -33.93519 | 151.17593 | 9 ft | 20 kts | 167° |
| 2026-04-24 15:10 | -33.93647 | 151.17639 | 9 ft | 18 kts | 148° |
| 2026-04-24 15:10 | -33.93758 | 151.17690 | 9 ft | 16 kts | 169° |
| 2026-04-24 15:11 | -33.93852 | 151.17741 | 10 ft | 14 kts | 131° |
| 2026-04-24 15:11 | -33.93938 | 151.17789 | 11 ft | 14 kts | 168° |
| 2026-04-24 15:11 | -33.94078 | 151.17824 | 14 ft | 26 kts | 168° |
| 2026-04-24 15:11 | -33.94251 | 151.17870 | 19 ft | 23 kts | 168° |
| 2026-04-24 15:12 | -33.94395 | 151.17906 | 24 ft | 19 kts | 168° |
| 2026-04-24 15:12 | -33.94624 | 151.17909 | 26 ft | 24 kts | 167° |
| 2026-04-24 15:12 | -33.94808 | 151.17956 | 28 ft | 26 kts | 168° |
| 2026-04-24 15:13 | -33.94989 | 151.18005 | 25 ft | 26 kts | 168° |
| 2026-04-24 15:13 | -33.95136 | 151.18043 | 20 ft | 14 kts | 167° |
| 2026-04-24 15:13 | -33.95168 | 151.18152 | 19 ft | 22 kts | 78° |
| 2026-04-24 15:13 | -33.95126 | 151.18381 | 17 ft | 28 kts | 78° |
| 2026-04-24 15:14 | -33.95144 | 151.18571 | 16 ft | 22 kts | 126° |
| 2026-04-24 15:14 | -33.95263 | 151.18695 | 13 ft | 22 kts | 149° |
| 2026-04-24 15:14 | -33.95456 | 151.18758 | 12 ft | 30 kts | 168° |
| 2026-04-24 15:14 | -33.95657 | 151.18810 | 9 ft | 28 kts | 168° |
| 2026-04-24 15:15 | -33.95848 | 151.18860 | 9 ft | 27 kts | 168° |
| 2026-04-24 15:15 | -33.96029 | 151.18907 | 9 ft | 25 kts | 168° |
| 2026-04-24 15:15 | -33.96200 | 151.18951 | 9 ft | 24 kts | 169° |
| 2026-04-24 15:15 | -33.96363 | 151.18993 | 9 ft | 22 kts | 168° |
| 2026-04-24 15:16 | -33.96521 | 151.19034 | 11 ft | 26 kts | 168° |
| 2026-04-24 15:16 | -33.96679 | 151.19075 | 12 ft | 16 kts | 166° |
| 2026-04-24 15:16 | -33.96706 | 151.19170 | 12 ft | 13 kts | 45° |
| 2026-04-24 15:16 | -33.96590 | 151.19220 | 12 ft | 27 kts | 10° |
| 2026-04-24 15:17 | -33.96218 | 151.19157 | 9 ft | 94 kts | 348° |
| 2026-04-24 15:17 | -33.95305 | 151.18919 | 30 ft | 167 kts | 347° |
| 2026-04-24 15:17 | -33.94091 | 151.18660 | 693 ft | 187 kts | 1° |
| 2026-04-24 15:17 | -33.92886 | 151.19118 | 1739 ft | 183 kts | 34° |
| 2026-04-24 15:18 | -33.91849 | 151.20018 | 2314 ft | 193 kts | 38° |
| 2026-04-24 15:18 | -33.90745 | 151.21013 | 2817 ft | 207 kts | 37° |
| 2026-04-24 15:18 | -33.89519 | 151.22082 | 3280 ft | 227 kts | 37° |
| 2026-04-24 15:18 | -33.88202 | 151.23221 | 3911 ft | 240 kts | 37° |
| 2026-04-24 15:19 | -33.86813 | 151.24423 | 4526 ft | 254 kts | 37° |
| 2026-04-24 15:19 | -33.85375 | 151.25673 | 5376 ft | 256 kts | 37° |
| 2026-04-24 15:19 | -33.83946 | 151.26970 | 6195 ft | 260 kts | 44° |
| 2026-04-24 15:19 | -33.82962 | 151.28760 | 6974 ft | 262 kts | 69° |
| 2026-04-24 15:20 | -33.82450 | 151.30859 | 7734 ft | 267 kts | 76° |
| 2026-04-24 15:20 | -33.82010 | 151.33014 | 8554 ft | 269 kts | 76° |
| 2026-04-24 15:20 | -33.81505 | 151.35194 | 9216 ft | 276 kts | 72° |
| 2026-04-24 15:20 | -33.80687 | 151.37250 | 10006 ft | 278 kts | 58° |
| 2026-04-24 15:21 | -33.79470 | 151.39131 | 10510 ft | 292 kts | 51° |
| 2026-04-24 15:21 | -33.78096 | 151.40988 | 10972 ft | 306 kts | 50° |
| 2026-04-24 15:21 | -33.76675 | 151.42929 | 11620 ft | 312 kts | 51° |
| 2026-04-24 15:21 | -33.75279 | 151.44916 | 12349 ft | 315 kts | 52° |
| 2026-04-24 15:22 | -33.73892 | 151.46951 | 13030 ft | 319 kts | 53° |
| 2026-04-24 15:22 | -33.72488 | 151.49034 | 13713 ft | 322 kts | 53° |
| 2026-04-24 15:22 | -33.71081 | 151.51123 | 14357 ft | 326 kts | 54° |
| 2026-04-24 15:23 | -33.68208 | 151.55386 | 15723 ft | 331 kts | 53° |
| 2026-04-24 15:23 | -33.65206 | 151.59680 | 16987 ft | 339 kts | 49° |
| 2026-04-24 15:23 | -33.63446 | 151.61591 | 17582 ft | 345 kts | 40° |
| 2026-04-24 15:24 | -33.57373 | 151.66420 | 19340 ft | 357 kts | 34° |
| 2026-04-24 15:25 | -33.53852 | 151.69102 | 20259 ft | 363 kts | 35° |
| 2026-04-24 15:25 | -33.48705 | 151.72638 | 21567 ft | 372 kts | 26° |
| 2026-04-24 15:26 | -33.41179 | 151.75382 | 23081 ft | 383 kts | 17° |
| 2026-04-24 15:27 | -33.33337 | 151.77802 | 24468 ft | 394 kts | 18° |
| 2026-04-24 15:27 | -33.25290 | 151.80365 | 25764 ft | 403 kts | 18° |
| 2026-04-24 15:28 | -33.14291 | 151.83899 | 27321 ft | 417 kts | 18° |
| 2026-04-24 15:29 | -33.08642 | 151.85713 | 28134 ft | 422 kts | 18° |
| 2026-04-24 15:30 | -32.99999 | 151.88486 | 29227 ft | 430 kts | 18° |
| 2026-04-24 15:31 | -32.88283 | 151.92238 | 30494 ft | 442 kts | 18° |
| 2026-04-24 15:32 | -32.76244 | 151.96081 | 31503 ft | 453 kts | 19° |
| 2026-04-24 15:33 | -32.63936 | 152.00003 | 32540 ft | 462 kts | 19° |
| 2026-04-24 15:33 | -32.54561 | 152.02980 | 33236 ft | 469 kts | 19° |
| 2026-04-24 15:34 | -32.48182 | 152.05003 | 33747 ft | 472 kts | 19° |
| 2026-04-24 15:35 | -32.38588 | 152.08041 | 34492 ft | 476 kts | 19° |
| 2026-04-24 15:35 | -32.32259 | 152.10030 | 35139 ft | 472 kts | 19° |
| 2026-04-24 15:35 | -32.29062 | 152.11037 | 35354 ft | 473 kts | 19° |
| 2026-04-24 15:36 | -32.25857 | 152.12047 | 35415 ft | 476 kts | 19° |
| 2026-04-24 15:36 | -32.16325 | 152.15050 | 35436 ft | 469 kts | 19° |
| 2026-04-24 15:37 | -32.10041 | 152.17023 | 35437 ft | 467 kts | 19° |
| 2026-04-24 15:37 | -32.03756 | 152.18997 | 35435 ft | 469 kts | 19° |
| 2026-04-24 15:38 | -31.97458 | 152.20973 | 35442 ft | 467 kts | 19° |
| 2026-04-24 15:38 | -31.91181 | 152.22937 | 35435 ft | 467 kts | 19° |
| 2026-04-24 15:39 | -31.84863 | 152.24934 | 35428 ft | 474 kts | 19° |
| 2026-04-24 15:39 | -31.78493 | 152.26921 | 35423 ft | 470 kts | 19° |
| 2026-04-24 15:40 | -31.72198 | 152.28870 | 35422 ft | 467 kts | 19° |
| 2026-04-24 15:40 | -31.65870 | 152.30832 | 35423 ft | 474 kts | 19° |
| 2026-04-24 15:41 | -31.59453 | 152.32832 | 35428 ft | 483 kts | 19° |
| 2026-04-24 15:41 | -31.52893 | 152.34872 | 35422 ft | 490 kts | 19° |
| 2026-04-24 15:42 | -31.46318 | 152.36905 | 35417 ft | 489 kts | 19° |
| 2026-04-24 15:42 | -31.39749 | 152.38933 | 35422 ft | 487 kts | 19° |
| 2026-04-24 15:43 | -31.33168 | 152.40964 | 35419 ft | 486 kts | 19° |
| 2026-04-24 15:43 | -31.26638 | 152.42976 | 35412 ft | 488 kts | 19° |
| 2026-04-24 15:44 | -31.20075 | 152.44998 | 35415 ft | 488 kts | 19° |
| 2026-04-24 15:44 | -31.13528 | 152.47012 | 35417 ft | 487 kts | 18° |
| 2026-04-24 15:45 | -31.06952 | 152.49033 | 35414 ft | 487 kts | 18° |
| 2026-04-24 15:45 | -31.00381 | 152.51051 | 35419 ft | 488 kts | 19° |
| 2026-04-24 15:46 | -30.93834 | 152.53058 | 35418 ft | 488 kts | 19° |
| 2026-04-24 15:46 | -30.87258 | 152.55067 | 35415 ft | 487 kts | 19° |
| 2026-04-24 15:47 | -30.80733 | 152.57060 | 35410 ft | 488 kts | 19° |
| 2026-04-24 15:47 | -30.74179 | 152.59221 | 35401 ft | 487 kts | 21° |
| 2026-04-24 15:48 | -30.67747 | 152.61583 | 35395 ft | 486 kts | 22° |
| 2026-04-24 15:48 | -30.61305 | 152.63986 | 35399 ft | 485 kts | 22° |
| 2026-04-24 15:49 | -30.54859 | 152.66365 | 35399 ft | 487 kts | 21° |
| 2026-04-24 15:49 | -30.48396 | 152.68726 | 35401 ft | 486 kts | 21° |
| 2026-04-24 15:50 | -30.41956 | 152.71057 | 35399 ft | 488 kts | 21° |
| 2026-04-24 15:50 | -30.35498 | 152.73383 | 35401 ft | 484 kts | 21° |
| 2026-04-24 15:51 | -30.29069 | 152.75697 | 35399 ft | 485 kts | 21° |
| 2026-04-24 15:51 | -30.22608 | 152.78024 | 35405 ft | 487 kts | 21° |
| 2026-04-24 15:52 | -30.16094 | 152.80359 | 35394 ft | 486 kts | 21° |
| 2026-04-24 15:52 | -30.09645 | 152.82669 | 35389 ft | 487 kts | 21° |
| 2026-04-24 15:53 | -30.03196 | 152.84978 | 35392 ft | 487 kts | 21° |
| 2026-04-24 15:53 | -29.96716 | 152.87295 | 35387 ft | 487 kts | 21° |
| 2026-04-24 15:54 | -29.90241 | 152.89609 | 35378 ft | 487 kts | 21° |
| 2026-04-24 15:54 | -29.83766 | 152.91917 | 35359 ft | 486 kts | 21° |
| 2026-04-24 15:55 | -29.77268 | 152.94231 | 35354 ft | 488 kts | 21° |
| 2026-04-24 15:55 | -29.70792 | 152.96532 | 35353 ft | 486 kts | 21° |
| 2026-04-24 15:56 | -29.64331 | 152.98830 | 35346 ft | 486 kts | 21° |
| 2026-04-24 15:56 | -29.57879 | 153.01120 | 35347 ft | 487 kts | 21° |
| 2026-04-24 15:57 | -29.51394 | 153.03413 | 35342 ft | 486 kts | 21° |
| 2026-04-24 15:57 | -29.44930 | 153.05698 | 35332 ft | 488 kts | 21° |
| 2026-04-24 15:58 | -29.38456 | 153.07982 | 35339 ft | 485 kts | 21° |
| 2026-04-24 15:58 | -29.31967 | 153.10274 | 35326 ft | 488 kts | 21° |
| 2026-04-24 15:59 | -29.25456 | 153.12570 | 35330 ft | 487 kts | 20° |
| 2026-04-24 15:59 | -29.19015 | 153.14833 | 35325 ft | 485 kts | 20° |
| 2026-04-24 16:00 | -29.12530 | 153.17107 | 35328 ft | 484 kts | 20° |
| 2026-04-24 16:00 | -29.06049 | 153.19382 | 35321 ft | 486 kts | 20° |
| 2026-04-24 16:01 | -29.00055 | 153.21484 | 35328 ft | 484 kts | 20° |
| 2026-04-24 16:01 | -28.93640 | 153.23726 | 35328 ft | 471 kts | 20° |
| 2026-04-24 16:02 | -28.90532 | 153.24808 | 35288 ft | 460 kts | 20° |
| 2026-04-24 16:02 | -28.87497 | 153.25864 | 35061 ft | 453 kts | 20° |
| 2026-04-24 16:02 | -28.84504 | 153.26907 | 34819 ft | 450 kts | 20° |
| 2026-04-24 16:02 | -28.81509 | 153.27959 | 34242 ft | 451 kts | 20° |
| 2026-04-24 16:03 | -28.78516 | 153.29007 | 33721 ft | 451 kts | 20° |
| 2026-04-24 16:03 | -28.75510 | 153.30060 | 33155 ft | 452 kts | 20° |
| 2026-04-24 16:03 | -28.72503 | 153.31113 | 32599 ft | 452 kts | 20° |
| 2026-04-24 16:03 | -28.69523 | 153.32158 | 32054 ft | 451 kts | 20° |
| 2026-04-24 16:04 | -28.66534 | 153.33205 | 31509 ft | 451 kts | 20° |
| 2026-04-24 16:04 | -28.63505 | 153.34261 | 30951 ft | 450 kts | 20° |
| 2026-04-24 16:04 | -28.60527 | 153.35295 | 30387 ft | 449 kts | 19° |
| 2026-04-24 16:04 | -28.57545 | 153.36328 | 29776 ft | 447 kts | 19° |
| 2026-04-24 16:05 | -28.51665 | 153.38362 | 28670 ft | 441 kts | 19° |
| 2026-04-24 16:05 | -28.48743 | 153.39372 | 28131 ft | 437 kts | 20° |
| 2026-04-24 16:06 | -28.42968 | 153.41370 | 27046 ft | 431 kts | 19° |
| 2026-04-24 16:06 | -28.40093 | 153.42364 | 26508 ft | 427 kts | 19° |
| 2026-04-24 16:06 | -28.34453 | 153.44313 | 25456 ft | 420 kts | 19° |
| 2026-04-24 16:07 | -28.31649 | 153.45282 | 24925 ft | 417 kts | 19° |
| 2026-04-24 16:07 | -28.28886 | 153.46237 | 24397 ft | 413 kts | 20° |
| 2026-04-24 16:07 | -28.23449 | 153.48116 | 23384 ft | 407 kts | 19° |
| 2026-04-24 16:08 | -28.20747 | 153.49042 | 22868 ft | 404 kts | 19° |
| 2026-04-24 16:08 | -28.15257 | 153.50072 | 21863 ft | 402 kts | 360° |
| 2026-04-24 16:09 | -28.09720 | 153.49206 | 20865 ft | 398 kts | 351° |
| 2026-04-24 16:09 | -28.07028 | 153.48592 | 20375 ft | 395 kts | 350° |
| 2026-04-24 16:09 | -28.04354 | 153.47965 | 19880 ft | 393 kts | 350° |
| 2026-04-24 16:09 | -28.01696 | 153.47354 | 19378 ft | 390 kts | 350° |
| 2026-04-24 16:10 | -27.93773 | 153.45634 | 17899 ft | 382 kts | 351° |
| 2026-04-24 16:11 | -27.88668 | 153.44559 | 16949 ft | 362 kts | 352° |
| 2026-04-24 16:11 | -27.86233 | 153.44052 | 16497 ft | 353 kts | 352° |
| 2026-04-24 16:11 | -27.83838 | 153.43556 | 16047 ft | 344 kts | 353° |
| 2026-04-24 16:12 | -27.79223 | 153.42603 | 15220 ft | 330 kts | 353° |
| 2026-04-24 16:12 | -27.76971 | 153.42139 | 14749 ft | 331 kts | 353° |
| 2026-04-24 16:12 | -27.72441 | 153.41211 | 13894 ft | 330 kts | 353° |
| 2026-04-24 16:13 | -27.70162 | 153.40742 | 13473 ft | 330 kts | 353° |
| 2026-04-24 16:13 | -27.65649 | 153.39812 | 12609 ft | 329 kts | 353° |
| 2026-04-24 16:14 | -27.61198 | 153.39444 | 12272 ft | 306 kts | 7° |
| 2026-04-24 16:14 | -27.59091 | 153.39548 | 12270 ft | 303 kts | 8° |
| 2026-04-24 16:14 | -27.54777 | 153.39828 | 12246 ft | 313 kts | 7° |
| 2026-04-24 16:15 | -27.53336 | 153.39908 | 12038 ft | 312 kts | 7° |
| 2026-04-24 16:15 | -27.48251 | 153.40146 | 11097 ft | 312 kts | 7° |
| 2026-04-24 16:16 | -27.43976 | 153.40335 | 10490 ft | 303 kts | 7° |
| 2026-04-24 16:16 | -27.41913 | 153.40425 | 10303 ft | 293 kts | 7° |
| 2026-04-24 16:17 | -27.35919 | 153.40706 | 9029 ft | 281 kts | 8° |
| 2026-04-24 16:17 | -27.32086 | 153.40875 | 8890 ft | 273 kts | 8° |
| 2026-04-24 16:18 | -27.28308 | 153.41054 | 8291 ft | 270 kts | 8° |
| 2026-04-24 16:18 | -27.24577 | 153.41229 | 7631 ft | 270 kts | 8° |
| 2026-04-24 16:18 | -27.22679 | 153.41316 | 7281 ft | 270 kts | 8° |
| 2026-04-24 16:19 | -27.18913 | 153.40939 | 6590 ft | 280 kts | 339° |
| 2026-04-24 16:19 | -27.17288 | 153.39732 | 6279 ft | 284 kts | 322° |
| 2026-04-24 16:20 | -27.14429 | 153.36610 | 5579 ft | 286 kts | 308° |
| 2026-04-24 16:20 | -27.13160 | 153.32674 | 5370 ft | 263 kts | 257° |
| 2026-04-24 16:20 | -27.13740 | 153.30823 | 5331 ft | 244 kts | 238° |
| 2026-04-24 16:21 | -27.15239 | 153.27528 | 5175 ft | 233 kts | 238° |
| 2026-04-24 16:21 | -27.16091 | 153.25957 | 4893 ft | 243 kts | 222° |
| 2026-04-24 16:21 | -27.17390 | 153.24771 | 4497 ft | 242 kts | 204° |
| 2026-04-24 16:22 | -27.18885 | 153.23901 | 4137 ft | 241 kts | 199° |
| 2026-04-24 16:22 | -27.21836 | 153.22290 | 3517 ft | 228 kts | 200° |
| 2026-04-24 16:22 | -27.23235 | 153.21493 | 3129 ft | 224 kts | 200° |
| 2026-04-24 16:23 | -27.24602 | 153.20715 | 2850 ft | 214 kts | 199° |
| 2026-04-24 16:23 | -27.25915 | 153.19971 | 2562 ft | 203 kts | 199° |
| 2026-04-24 16:23 | -27.27100 | 153.19292 | 2275 ft | 183 kts | 199° |
| 2026-04-24 16:24 | -27.29228 | 153.18089 | 1837 ft | 168 kts | 198° |
| 2026-04-24 16:24 | -27.30285 | 153.17496 | 1604 ft | 170 kts | 199° |
| 2026-04-24 16:24 | -27.31312 | 153.16905 | 1402 ft | 156 kts | 199° |
| 2026-04-24 16:24 | -27.32234 | 153.16376 | 1166 ft | 138 kts | 200° |
| 2026-04-24 16:25 | -27.33071 | 153.15903 | 990 ft | 132 kts | 200° |
| 2026-04-24 16:25 | -27.33917 | 153.15427 | 837 ft | 138 kts | 202° |
| 2026-04-24 16:25 | -27.34782 | 153.14937 | 635 ft | 139 kts | 202° |
| 2026-04-24 16:26 | -27.36524 | 153.13968 | 276 ft | 137 kts | 204° |
| 2026-04-24 16:26 | -27.37393 | 153.13477 | 76 ft | 138 kts | 206° |
| 2026-04-24 16:26 | -27.38648 | 153.12758 | 21 ft | 52 kts | 207° |
| 2026-04-24 16:27 | -27.38866 | 153.12614 | 21 ft | 31 kts | 217° |
| 2026-04-24 16:27 | -27.39005 | 153.12453 | 21 ft | 22 kts | 233° |
| 2026-04-24 16:27 | -27.39075 | 153.12335 | 21 ft | 17 kts | 237° |
| 2026-04-24 16:27 | -27.39134 | 153.12225 | 21 ft | 15 kts | 255° |
| 2026-04-24 16:28 | -27.39078 | 153.12149 | 21 ft | 13 kts | 360° |
| 2026-04-24 16:28 | -27.38994 | 153.12192 | 21 ft | 14 kts | 27° |
| 2026-04-24 16:28 | -27.38727 | 153.12344 | 21 ft | 21 kts | 27° |
| 2026-04-24 16:29 | -27.38610 | 153.12408 | 21 ft | 14 kts | 22° |
| 2026-04-24 16:29 | -27.38540 | 153.12367 | 21 ft | 12 kts | 312° |
| 2026-04-24 16:29 | -27.38453 | 153.12242 | 21 ft | 8 kts | 332° |
| 2026-04-24 16:30 | -27.38431 | 153.12154 | 21 ft | 2 kts | 272° |
| 2026-04-24 16:30 | -27.38431 | 153.12148 | 21 ft | 0 kts | 272° |